Time;durP1;ratioP1;P1;durP2;ratioP2;P2;SDS_P1;SDS_P2;PMS_P1;PMS_P2;Temp;Humidity;BMP_temperature;BMP_pressure;BME280_temperature;BME280_humidity;BME280_pressure;Samples;Min_cycle;Max_cycle;Signal;HPM_P1;HPM_P2
2021/04/27 00:00:01;;;;;;;3.05;2.47;;;5.70;72.10;;;;;;5070942;28;20224;-71
2021/04/27 00:02:27;;;;;;;2.83;2.58;;;5.60;72.10;;;;;;5070169;28;20825;-71
2021/04/27 00:04:54;;;;;;;2.97;2.40;;;5.70;70.60;;;;;;5070666;28;20208;-71
2021/04/27 00:07:21;;;;;;;2.65;2.45;;;5.70;69.90;;;;;;5070628;28;20225;-71
2021/04/27 00:09:48;;;;;;;2.80;2.50;;;5.70;68.50;;;;;;5070542;28;20233;-70
2021/04/27 00:12:14;;;;;;;3.80;2.70;;;5.80;69.00;;;;;;5070209;28;20213;-71
2021/04/27 00:14:40;;;;;;;3.03;2.60;;;5.80;69.40;;;;;;5070338;28;20205;-71
2021/04/27 00:17:07;;;;;;;2.30;2.10;;;5.80;69.00;;;;;;5070864;28;20223;-71
2021/04/27 00:19:33;;;;;;;3.72;2.80;;;5.90;69.70;;;;;;5070140;28;20239;-71
2021/04/27 00:22:00;;;;;;;2.58;2.35;;;5.90;69.50;;;;;;5070002;28;20761;-70
2021/04/27 00:24:30;;;;;;;2.45;2.20;;;5.80;68.80;;;;;;5070472;28;20275;-70
2021/04/27 00:26:57;;;;;;;2.17;1.98;;;5.80;69.60;;;;;;5070191;28;20201;-71
2021/04/27 00:29:23;;;;;;;4.97;2.42;;;5.80;69.80;;;;;;5070415;28;20229;-71
2021/04/27 00:31:49;;;;;;;2.80;2.40;;;5.80;70.50;;;;;;5069513;28;20200;-71
2021/04/27 00:34:16;;;;;;;2.67;2.47;;;5.80;69.30;;;;;;5070364;28;20196;-70
2021/04/27 00:36:42;;;;;;;3.92;2.63;;;5.80;69.90;;;;;;5070059;28;20258;-70
2021/04/27 00:39:09;;;;;;;7.43;2.63;;;5.70;70.70;;;;;;5070395;28;20223;-70
2021/04/27 00:41:36;;;;;;;3.33;2.70;;;5.70;71.70;;;;;;5068971;28;20200;-70
2021/04/27 00:44:02;;;;;;;3.20;2.65;;;5.60;74.20;;;;;;5069924;28;20580;-71
2021/04/27 00:46:28;;;;;;;2.65;2.20;;;5.40;74.40;;;;;;5070069;28;20204;-71
2021/04/27 00:48:55;;;;;;;2.72;2.40;;;5.30;74.20;;;;;;5069765;28;20601;-70
2021/04/27 00:51:21;;;;;;;2.60;2.28;;;5.30;74.30;;;;;;5069382;28;20204;-70
2021/04/27 00:53:48;;;;;;;5.68;2.63;;;5.20;74.80;;;;;;5069618;28;20703;-70
2021/04/27 00:56:16;;;;;;;4.47;2.67;;;5.10;75.10;;;;;;5069618;28;20215;-70
2021/04/27 00:58:42;;;;;;;3.65;2.60;;;5.00;75.70;;;;;;5069483;28;20269;-70
2021/04/27 01:01:11;;;;;;;2.40;2.20;;;4.90;75.60;;;;;;5068965;28;20729;-70
2021/04/27 01:03:37;;;;;;;3.50;2.92;;;4.80;76.40;;;;;;5069474;28;20247;-70
2021/04/27 01:06:04;;;;;;;5.28;2.67;;;4.80;76.90;;;;;;5069189;28;20209;-70
2021/04/27 01:08:37;;;;;;;3.00;2.70;;;4.70;76.70;;;;;;5069393;28;20220;-70
2021/04/27 01:11:15;;;;;;;3.45;2.90;;;4.60;76.50;;;;;;5068901;28;20227;-70
2021/04/27 01:13:45;;;;;;;2.95;2.70;;;4.60;76.70;;;;;;5069161;28;20680;-70
2021/04/27 01:16:13;;;;;;;3.17;2.40;;;4.50;77.50;;;;;;5069535;28;20257;-70
2021/04/27 01:18:42;;;;;;;3.60;2.92;;;4.40;76.80;;;;;;5068938;28;20223;-70
2021/04/27 01:21:10;;;;;;;2.50;2.30;;;4.30;76.60;;;;;;5068834;28;20200;-71
2021/04/27 01:23:47;;;;;;;3.05;2.45;;;4.30;77.30;;;;;;5068857;28;20212;-71
2021/04/27 01:26:42;;;;;;;3.72;2.58;;;4.20;77.60;;;;;;5069278;28;20221;-71
2021/04/27 01:29:12;;;;;;;5.75;2.67;;;4.10;77.10;;;;;;5053244;28;20315;-71
2021/04/27 01:31:39;;;;;;;4.18;2.47;;;4.10;77.10;;;;;;5068280;28;20261;-71
2021/04/27 01:34:07;;;;;;;3.45;2.20;;;4.10;77.50;;;;;;5068903;28;20672;-71
2021/04/27 01:36:34;;;;;;;5.22;2.72;;;4.00;77.60;;;;;;5068764;28;20200;-71
2021/04/27 01:39:01;;;;;;;3.00;2.70;;;4.00;77.90;;;;;;5069106;28;20216;-71
2021/04/27 01:41:27;;;;;;;3.28;2.58;;;3.90;77.90;;;;;;5068433;28;20200;-71
2021/04/27 01:43:53;;;;;;;3.03;2.28;;;3.90;78.00;;;;;;5068817;28;20212;-71
2021/04/27 01:46:21;;;;;;;4.75;3.13;;;3.90;77.90;;;;;;5068715;28;20212;-71
2021/04/27 01:48:48;;;;;;;3.10;2.80;;;3.80;78.20;;;;;;5068447;28;20224;-71
2021/04/27 01:51:15;;;;;;;2.65;2.42;;;3.80;78.30;;;;;;5068141;28;20203;-71
2021/04/27 01:53:43;;;;;;;2.65;2.38;;;3.70;78.40;;;;;;5067900;28;20204;-71
2021/04/27 01:56:09;;;;;;;3.58;2.60;;;3.70;78.40;;;;;;5069009;28;20200;-71
2021/04/27 01:58:36;;;;;;;3.80;2.58;;;3.70;78.70;;;;;;5068238;28;20227;-71
2021/04/27 02:01:04;;;;;;;3.45;2.90;;;3.70;79.10;;;;;;5068351;28;20207;-71
2021/04/27 02:03:39;;;;;;;2.88;2.50;;;3.70;79.00;;;;;;5068284;28;20196;-70
2021/04/27 02:06:05;;;;;;;5.00;2.72;;;3.70;78.50;;;;;;5068789;28;20214;-71
2021/04/27 02:08:32;;;;;;;6.95;2.90;;;3.70;79.70;;;;;;5068341;28;20245;-70
2021/04/27 02:10:59;;;;;;;3.08;2.50;;;3.70;80.10;;;;;;5067975;28;20207;-71
2021/04/27 02:13:25;;;;;;;6.07;3.08;;;3.70;80.10;;;;;;5068720;28;20227;-71
2021/04/27 02:15:52;;;;;;;3.03;2.60;;;3.70;79.90;;;;;;5068490;28;20208;-71
2021/04/27 02:18:23;;;;;;;3.97;2.70;;;3.70;80.30;;;;;;5068651;28;20204;-70
2021/04/27 02:20:51;;;;;;;2.90;2.20;;;3.70;80.60;;;;;;5067892;28;20208;-71
2021/04/27 02:23:20;;;;;;;2.58;2.38;;;3.70;79.80;;;;;;5068554;28;20204;-70
2021/04/27 02:25:47;;;;;;;3.20;2.90;;;3.70;80.70;;;;;;5068449;28;20200;-71
2021/04/27 02:28:14;;;;;;;2.50;2.30;;;3.60;80.80;;;;;;5068254;28;20603;-71
2021/04/27 02:30:40;;;;;;;3.97;2.97;;;3.60;81.50;;;;;;5067614;28;20223;-71
2021/04/27 02:33:08;;;;;;;2.92;2.53;;;3.60;81.60;;;;;;5068371;28;20204;-71
2021/04/27 02:35:34;;;;;;;3.53;2.70;;;3.50;82.20;;;;;;5068195;28;20200;-71
2021/04/27 02:38:02;;;;;;;2.85;2.55;;;3.50;82.60;;;;;;5068206;28;20591;-71
2021/04/27 02:40:29;;;;;;;5.05;3.28;;;3.50;82.00;;;;;;5067761;28;20224;-71
2021/04/27 02:42:58;;;;;;;4.65;2.65;;;3.50;82.10;;;;;;5068322;28;20591;-72
2021/04/27 02:45:31;;;;;;;7.30;2.80;;;3.40;81.60;;;;;;5068212;28;20230;-71
2021/04/27 02:48:06;;;;;;;4.70;2.65;;;3.50;82.00;;;;;;5068078;28;20313;-71
2021/04/27 02:50:32;;;;;;;4.45;2.95;;;3.50;81.90;;;;;;5067474;28;20238;-71
2021/04/27 02:52:59;;;;;;;3.20;2.33;;;3.50;82.40;;;;;;5068395;28;20212;-71
2021/04/27 02:55:26;;;;;;;4.82;2.55;;;3.50;82.30;;;;;;5068193;28;20209;-71
2021/04/27 02:57:52;;;;;;;5.78;2.80;;;3.50;82.60;;;;;;5068074;28;20196;-71
2021/04/27 03:00:19;;;;;;;3.38;3.05;;;3.50;82.30;;;;;;5067642;28;20220;-71
2021/04/27 03:02:45;;;;;;;3.47;2.55;;;3.50;82.90;;;;;;5067844;28;20212;-70
2021/04/27 03:05:13;;;;;;;3.50;2.53;;;3.50;83.00;;;;;;5071781;28;20604;-71
2021/04/27 03:07:39;;;;;;;3.90;2.67;;;3.40;83.10;;;;;;5071681;28;20220;-72
2021/04/27 03:10:07;;;;;;;5.10;3.13;;;3.40;83.20;;;;;;5072208;28;20231;-72
2021/04/27 03:12:34;;;;;;;5.15;2.90;;;3.40;82.80;;;;;;5071763;28;20197;-72
2021/04/27 03:15:01;;;;;;;3.20;2.90;;;3.40;82.70;;;;;;5071913;28;20627;-71
2021/04/27 03:17:28;;;;;;;4.25;2.60;;;3.30;83.10;;;;;;5071734;28;20219;-71
2021/04/27 03:19:54;;;;;;;4.10;2.72;;;3.30;83.40;;;;;;5071439;28;20242;-71
2021/04/27 03:22:20;;;;;;;3.30;3.00;;;3.30;83.40;;;;;;5071415;28;20577;-71
2021/04/27 03:24:46;;;;;;;3.83;3.20;;;3.20;83.60;;;;;;5071143;28;20204;-71
2021/04/27 03:27:12;;;;;;;3.35;2.55;;;3.20;84.30;;;;;;5071164;28;20678;-69
2021/04/27 03:29:40;;;;;;;4.93;2.83;;;3.20;84.50;;;;;;5070998;28;20224;-72
2021/04/27 03:32:06;;;;;;;4.38;3.22;;;3.20;84.30;;;;;;5071120;28;20212;-71
2021/04/27 03:34:32;;;;;;;3.58;2.75;;;3.20;85.10;;;;;;5071457;28;20200;-71
2021/04/27 03:36:59;;;;;;;5.25;3.10;;;3.20;84.20;;;;;;5070770;28;20196;-71
2021/04/27 03:39:25;;;;;;;3.03;2.70;;;3.20;84.70;;;;;;5070540;28;20212;-71
2021/04/27 03:41:52;;;;;;;3.65;3.13;;;3.20;84.60;;;;;;5069772;28;20616;-72
2021/04/27 03:44:18;;;;;;;4.60;3.10;;;3.20;84.60;;;;;;5070336;28;20254;-71
2021/04/27 03:46:45;;;;;;;3.33;2.90;;;3.20;84.80;;;;;;5069852;28;20236;-70
2021/04/27 03:49:11;;;;;;;5.68;3.30;;;3.20;84.80;;;;;;5070166;28;20228;-69
2021/04/27 03:51:38;;;;;;;3.58;2.67;;;3.20;85.40;;;;;;5069743;28;20200;-72
2021/04/27 03:54:05;;;;;;;4.90;2.80;;;3.20;85.10;;;;;;5070301;28;20204;-69
2021/04/27 03:56:31;;;;;;;4.85;3.75;;;3.20;85.20;;;;;;5070218;28;20200;-70
2021/04/27 03:58:58;;;;;;;3.33;3.00;;;3.20;85.10;;;;;;5069865;28;20218;-70
2021/04/27 04:01:24;;;;;;;4.00;2.90;;;3.20;85.10;;;;;;5069721;28;20231;-72
2021/04/27 04:03:51;;;;;;;3.65;3.35;;;3.20;85.10;;;;;;5070138;28;20742;-71
2021/04/27 04:06:18;;;;;;;4.13;2.63;;;3.20;85.80;;;;;;5071191;28;20207;-72
2021/04/27 04:08:45;;;;;;;4.32;3.00;;;3.20;85.30;;;;;;5070264;28;20219;-72
2021/04/27 04:11:11;;;;;;;8.63;4.00;;;3.30;85.30;;;;;;5070617;28;20205;-72
2021/04/27 04:13:38;;;;;;;4.07;2.70;;;3.20;85.70;;;;;;5070898;28;20361;-71
2021/04/27 04:16:05;;;;;;;4.10;2.83;;;3.20;85.70;;;;;;5069739;28;20196;-70
2021/04/27 04:18:31;;;;;;;6.03;3.85;;;3.20;85.60;;;;;;5070541;28;20201;-70
2021/04/27 04:20:59;;;;;;;5.00;3.58;;;3.20;85.60;;;;;;5070475;28;20200;-71
2021/04/27 04:23:25;;;;;;;4.70;2.97;;;3.20;85.40;;;;;;5070375;28;20200;-71
2021/04/27 04:25:52;;;;;;;6.82;3.40;;;3.30;86.00;;;;;;5070753;28;20211;-70
2021/04/27 04:28:18;;;;;;;3.13;2.83;;;3.20;85.90;;;;;;5070724;28;20711;-71
2021/04/27 04:30:46;;;;;;;5.50;3.20;;;3.20;85.70;;;;;;5101358;22;20223;-92
2021/04/27 04:33:14;;;;;;;4.00;2.50;;;3.20;87.20;;;;;;5085451;28;20654;-93
2021/04/27 04:35:41;;;;;;;2.80;2.53;;;3.30;86.00;;;;;;5076514;28;20270;-94
2021/04/27 04:38:17;;;;;;;3.47;2.80;;;3.20;86.10;;;;;;5076415;28;20196;-93
2021/04/27 04:40:48;;;;;;;4.07;2.85;;;3.20;86.10;;;;;;5075043;28;20609;-94
2021/04/27 04:43:16;;;;;;;5.05;3.13;;;3.30;86.00;;;;;;5076137;28;20204;-93
2021/04/27 04:45:49;;;;;;;3.92;3.08;;;3.30;85.90;;;;;;5075330;28;20893;-93
2021/04/27 04:48:28;;;;;;;4.28;3.08;;;3.40;85.70;;;;;;5075019;28;20307;-93
2021/04/27 04:51:00;;;;;;;5.72;3.10;;;3.40;86.50;;;;;;5090562;28;20224;-92
2021/04/27 04:53:45;;;;;;;4.50;3.33;;;3.50;86.30;;;;;;5076991;28;20231;-93
2021/04/27 04:56:15;;;;;;;4.05;3.00;;;3.50;85.70;;;;;;5076042;28;20256;-93
2021/04/27 04:58:50;;;;;;;3.40;2.90;;;3.50;86.00;;;;;;5076895;28;20201;-93
2021/04/27 05:01:20;;;;;;;4.13;3.35;;;3.50;86.20;;;;;;5077803;28;20704;-93
2021/04/27 05:03:52;;;;;;;4.35;3.13;;;3.60;86.10;;;;;;5088790;28;20307;-93
2021/04/27 05:06:21;;;;;;;3.20;2.88;;;3.70;86.10;;;;;;5093998;28;20201;-92
2021/04/27 05:08:53;;;;;;;4.18;3.03;;;3.70;85.90;;;;;;5078156;28;20252;-94
2021/04/27 05:11:19;;;;;;;5.20;3.97;;;3.80;86.40;;;;;;5076153;28;20307;-93
2021/04/27 05:13:46;;;;;;;6.85;2.90;;;3.90;86.30;;;;;;5079530;28;20688;-92
2021/04/27 05:16:13;;;;;;;4.55;3.10;;;3.90;85.80;;;;;;5077869;28;20242;-92
2021/04/27 05:18:40;;;;;;;6.05;3.92;;;4.00;85.00;;;;;;5080230;28;20220;-93
2021/04/27 05:21:07;;;;;;;3.92;3.17;;;4.10;84.80;;;;;;5076342;28;20216;-92
2021/04/27 05:23:36;;;;;;;5.65;3.00;;;4.20;84.80;;;;;;5076143;28;20279;-93
2021/04/27 05:26:11;;;;;;;5.00;3.20;;;4.30;85.20;;;;;;5077658;28;20204;-93
2021/04/27 05:28:40;;;;;;;5.88;3.13;;;4.40;84.60;;;;;;5077024;28;20249;-93
2021/04/27 05:31:07;;;;;;;4.63;3.15;;;4.50;84.70;;;;;;5074507;28;20306;-94
2021/04/27 05:33:40;;;;;;;3.38;3.08;;;4.60;84.80;;;;;;5078893;28;20718;-92
2021/04/27 05:36:07;;;;;;;5.63;3.67;;;4.70;84.50;;;;;;5078215;28;20704;-94
2021/04/27 05:38:35;;;;;;;5.18;3.67;;;4.70;83.60;;;;;;5077715;28;20203;-93
2021/04/27 05:41:03;;;;;;;5.07;3.63;;;4.90;83.20;;;;;;5078188;28;20308;-93
2021/04/27 05:43:30;;;;;;;4.15;3.63;;;5.00;83.70;;;;;;5080571;28;20231;-93
2021/04/27 05:45:56;;;;;;;5.25;3.63;;;5.10;83.90;;;;;;5092027;22;20319;-73
2021/04/27 05:48:22;;;;;;;6.68;3.03;;;5.20;83.40;;;;;;5066449;28;20223;-74
2021/04/27 05:50:49;;;;;;;6.85;3.35;;;5.30;82.50;;;;;;5060778;28;20659;-73
2021/04/27 05:53:15;;;;;;;3.75;3.35;;;5.40;82.60;;;;;;5065445;28;20196;-74
2021/04/27 05:55:41;;;;;;;6.60;3.60;;;5.50;82.30;;;;;;5067568;28;20204;-72
2021/04/27 05:58:09;;;;;;;5.75;3.28;;;5.60;81.90;;;;;;5066935;28;20357;-73
2021/04/27 06:00:36;;;;;;;6.10;3.17;;;5.70;81.70;;;;;;5066853;28;20224;-73
2021/04/27 06:03:02;;;;;;;6.07;3.42;;;5.90;82.10;;;;;;5065952;28;20200;-73
2021/04/27 06:05:29;;;;;;;8.30;3.60;;;6.00;82.60;;;;;;5067679;28;20207;-72
2021/04/27 06:07:55;;;;;;;4.63;3.15;;;6.10;81.90;;;;;;5067375;28;20277;-73
2021/04/27 06:10:22;;;;;;;6.32;3.72;;;6.20;80.20;;;;;;5066719;28;20224;-73
2021/04/27 06:12:48;;;;;;;3.60;3.30;;;6.30;80.30;;;;;;5065299;28;20204;-73
2021/04/27 06:15:17;;;;;;;5.15;3.67;;;6.40;79.80;;;;;;5067554;28;20204;-73
2021/04/27 06:17:44;;;;;;;4.30;3.30;;;6.50;79.40;;;;;;5068158;28;20200;-73
2021/04/27 06:20:11;;;;;;;4.82;3.47;;;6.50;78.80;;;;;;5067290;28;20220;-73
2021/04/27 06:22:37;;;;;;;6.63;3.50;;;6.60;78.90;;;;;;5066865;28;20207;-73
2021/04/27 06:25:05;;;;;;;4.80;3.65;;;6.70;78.60;;;;;;5067992;28;20208;-73
2021/04/27 06:27:31;;;;;;;5.00;4.00;;;6.80;78.40;;;;;;5068966;28;20286;-73
2021/04/27 06:29:59;;;;;;;6.88;3.95;;;6.80;77.20;;;;;;5068574;28;20231;-73
2021/04/27 06:32:27;;;;;;;9.18;4.35;;;6.90;77.10;;;;;;5068533;28;20207;-73
2021/04/27 06:34:53;;;;;;;5.68;3.80;;;7.00;77.90;;;;;;5068398;28;20578;-73
2021/04/27 06:37:19;;;;;;;5.85;3.83;;;7.10;76.50;;;;;;5068551;28;20204;-73
2021/04/27 06:39:46;;;;;;;5.10;4.30;;;7.20;77.10;;;;;;5071564;28;20220;-73
2021/04/27 06:42:13;;;;;;;5.03;4.53;;;7.30;78.70;;;;;;5071964;28;20203;-73
2021/04/27 06:44:39;;;;;;;5.30;3.83;;;7.50;78.90;;;;;;5072626;28;20211;-73
2021/04/27 06:47:07;;;;;;;4.05;3.67;;;7.60;76.30;;;;;;5071953;28;20208;-73
2021/04/27 06:49:34;;;;;;;6.32;3.90;;;7.70;77.20;;;;;;5072519;28;20235;-73
2021/04/27 06:52:01;;;;;;;6.75;4.00;;;7.80;77.80;;;;;;5066615;28;20192;-73
2021/04/27 06:54:27;;;;;;;5.55;3.97;;;7.90;77.60;;;;;;5071850;28;20212;-73
2021/04/27 06:56:53;;;;;;;6.63;4.13;;;8.10;77.40;;;;;;5070784;28;20288;-73
2021/04/27 06:59:21;;;;;;;5.25;4.15;;;8.20;77.20;;;;;;5068602;28;20228;-73
2021/04/27 07:01:48;;;;;;;5.85;4.85;;;8.20;76.80;;;;;;5069267;28;20208;-73
2021/04/27 07:04:14;;;;;;;6.75;4.40;;;8.30;76.70;;;;;;5067957;28;20204;-73
2021/04/27 07:06:41;;;;;;;5.20;3.97;;;8.40;76.40;;;;;;5068564;28;20230;-73
2021/04/27 07:09:08;;;;;;;5.60;4.00;;;8.40;76.50;;;;;;5069050;28;20604;-73
2021/04/27 07:11:34;;;;;;;4.97;4.03;;;8.50;77.50;;;;;;5069937;28;20208;-73
2021/04/27 07:14:00;;;;;;;5.15;3.60;;;8.60;77.40;;;;;;5068237;28;20200;-73
2021/04/27 07:16:26;;;;;;;4.43;4.03;;;8.60;76.10;;;;;;5070136;28;20201;-73
2021/04/27 07:18:53;;;;;;;8.50;4.30;;;8.60;75.70;;;;;;5071010;28;20221;-73
2021/04/27 07:21:20;;;;;;;4.85;4.05;;;8.80;76.20;;;;;;5070175;28;20579;-73
2021/04/27 07:23:47;;;;;;;4.68;4.15;;;8.90;76.00;;;;;;5067978;28;20266;-73
2021/04/27 07:26:13;;;;;;;6.40;4.35;;;8.90;75.70;;;;;;5069518;28;20295;-73
2021/04/27 07:28:40;;;;;;;5.28;3.85;;;9.00;75.70;;;;;;5069617;28;20229;-73
2021/04/27 07:31:06;;;;;;;4.97;4.03;;;9.10;76.40;;;;;;5069772;28;20196;-73
2021/04/27 07:33:32;;;;;;;6.60;4.15;;;9.10;74.90;;;;;;5068715;28;20578;-73
2021/04/27 07:35:58;;;;;;;9.40;3.83;;;9.30;76.00;;;;;;5069799;28;20584;-73
2021/04/27 07:38:25;;;;;;;4.25;3.80;;;9.30;75.70;;;;;;5070807;28;20678;-72
2021/04/27 07:40:52;;;;;;;5.80;4.13;;;9.50;77.10;;;;;;5069486;28;20682;-73
2021/04/27 07:43:18;;;;;;;9.45;5.07;;;9.60;74.40;;;;;;5069575;28;20212;-73
2021/04/27 07:45:44;;;;;;;7.28;4.22;;;9.60;73.90;;;;;;5068661;28;20241;-73
2021/04/27 07:48:11;;;;;;;7.97;5.07;;;9.80;74.50;;;;;;5059756;28;20224;-73
2021/04/27 07:50:38;;;;;;;6.38;4.43;;;10.00;73.50;;;;;;5066557;28;20216;-73
2021/04/27 07:53:05;;;;;;;6.75;4.60;;;10.10;73.20;;;;;;5068505;28;20587;-73
2021/04/27 07:55:32;;;;;;;8.35;5.22;;;10.20;72.80;;;;;;5068147;28;20617;-73
2021/04/27 07:57:59;;;;;;;6.60;4.38;;;10.30;72.70;;;;;;5069373;28;20201;-73
2021/04/27 08:00:26;;;;;;;5.40;4.63;;;10.40;73.20;;;;;;5068774;28;20734;-73
2021/04/27 08:02:53;;;;;;;7.38;4.68;;;10.60;73.10;;;;;;5069703;28;20204;-73
2021/04/27 08:05:23;;;;;;;5.72;4.70;;;10.80;73.20;;;;;;5067661;28;20262;-73
2021/04/27 08:07:49;;;;;;;6.32;4.47;;;10.80;72.90;;;;;;5067036;28;20196;-73
2021/04/27 08:10:15;;;;;;;8.43;5.03;;;10.90;71.60;;;;;;5064800;28;20216;-73
2021/04/27 08:12:43;;;;;;;5.05;4.55;;;11.10;72.00;;;;;;5065861;28;20197;-73
2021/04/27 08:15:13;;;;;;;5.97;4.90;;;11.20;71.50;;;;;;5064381;28;20192;-73
2021/04/27 08:17:40;;;;;;;5.83;4.67;;;11.20;69.40;;;;;;5066320;28;20458;-73
2021/04/27 08:20:09;;;;;;;7.05;5.40;;;11.30;70.30;;;;;;5066468;28;20876;-72
2021/04/27 08:22:35;;;;;;;9.63;4.87;;;11.70;71.00;;;;;;5065354;28;20261;-72
2021/04/27 08:25:03;;;;;;;6.63;4.50;;;12.00;70.20;;;;;;5062998;28;20469;-73
2021/04/27 08:27:29;;;;;;;5.77;4.83;;;12.30;70.50;;;;;;5066937;28;20833;-73
2021/04/27 08:29:55;;;;;;;5.33;4.80;;;12.50;69.90;;;;;;5065526;28;20914;-73
2021/04/27 08:32:22;;;;;;;5.13;4.17;;;12.70;69.50;;;;;;5065805;28;20462;-73
2021/04/27 08:34:49;;;;;;;5.80;4.67;;;12.80;67.80;;;;;;5064276;28;20844;-73
2021/04/27 08:37:15;;;;;;;5.50;4.97;;;13.00;70.10;;;;;;5065079;28;20818;-73
2021/04/27 08:39:41;;;;;;;6.80;5.20;;;13.20;67.10;;;;;;5067290;28;20478;-73
2021/04/27 08:42:10;;;;;;;6.60;5.03;;;13.50;65.90;;;;;;5067825;28;20462;-73
2021/04/27 08:44:37;;;;;;;5.77;4.70;;;14.00;67.10;;;;;;5067256;28;20462;-73
2021/04/27 08:47:03;;;;;;;11.67;5.20;;;14.30;66.50;;;;;;5067707;28;20813;-73
2021/04/27 08:49:30;;;;;;;6.83;4.90;;;14.70;67.80;;;;;;5068557;28;20503;-73
2021/04/27 08:51:57;;;;;;;8.37;4.93;;;15.20;64.40;;;;;;5064844;28;20458;-73
2021/04/27 08:54:23;;;;;;;5.93;4.77;;;15.50;63.60;;;;;;5067602;28;20497;-73
2021/04/27 08:56:49;;;;;;;6.20;5.10;;;15.90;62.30;;;;;;5069858;28;20458;-73
2021/04/27 08:59:16;;;;;;;10.73;4.90;;;16.00;61.70;;;;;;5069106;28;20474;-73
2021/04/27 09:01:44;;;;;;;7.00;5.20;;;16.30;61.60;;;;;;5068727;28;20455;-73
2021/04/27 09:04:10;;;;;;;6.00;5.17;;;16.00;61.20;;;;;;5069484;28;20932;-73
2021/04/27 09:06:37;;;;;;;8.00;5.23;;;16.50;63.40;;;;;;5069149;28;20459;-73
2021/04/27 09:09:05;;;;;;;7.17;5.47;;;16.90;61.50;;;;;;5068792;28;20493;-73
2021/04/27 09:11:33;;;;;;;5.23;4.73;;;17.20;61.50;;;;;;5068706;28;20465;-73
2021/04/27 09:14:14;;;;;;;6.40;5.27;;;17.30;59.40;;;;;;5068786;28;20512;-73
2021/04/27 09:16:45;;;;;;;6.17;5.57;;;17.50;59.60;;;;;;5069782;28;20454;-73
2021/04/27 09:19:11;;;;;;;12.47;5.60;;;17.60;61.00;;;;;;5068576;28;20474;-73
2021/04/27 09:21:39;;;;;;;6.03;5.40;;;18.20;60.00;;;;;;5068955;28;20458;-73
2021/04/27 09:24:13;;;;;;;6.53;5.83;;;18.30;58.60;;;;;;5068422;28;20984;-73
2021/04/27 09:26:40;;;;;;;6.70;5.37;;;18.70;58.80;;;;;;5069925;28;20466;-73
2021/04/27 09:29:07;;;;;;;7.63;5.50;;;19.00;58.20;;;;;;5068929;28;20514;-73
2021/04/27 09:31:36;;;;;;;6.37;5.43;;;19.10;57.10;;;;;;5068701;28;20458;-73
2021/04/27 09:34:21;;;;;;;7.00;5.17;;;19.00;55.70;;;;;;5069427;28;20454;-73
2021/04/27 09:36:49;;;;;;;8.60;5.43;;;19.00;57.10;;;;;;5069553;28;20519;-73
2021/04/27 09:39:18;;;;;;;6.67;5.87;;;19.30;55.80;;;;;;5069011;28;20475;-73
2021/04/27 09:41:56;;;;;;;5.80;5.20;;;19.60;55.50;;;;;;5069074;28;20809;-72
2021/04/27 09:44:27;;;;;;;7.63;5.40;;;19.90;57.00;;;;;;5068982;28;20837;-72
2021/04/27 09:47:18;;;;;;;6.17;5.57;;;19.70;57.70;;;;;;5069156;28;20474;-72
2021/04/27 09:49:55;;;;;;;7.03;5.70;;;20.40;56.00;;;;;;5068828;28;20525;-72
2021/04/27 09:52:23;;;;;;;7.20;6.13;;;21.00;55.00;;;;;;5068115;28;20467;-72
2021/04/27 09:55:10;;;;;;;8.00;6.17;;;20.90;55.60;;;;;;5067880;28;20833;-73
2021/04/27 09:57:39;;;;;;;6.13;5.53;;;21.10;56.70;;;;;;5069043;28;20471;-73
2021/04/27 10:00:27;;;;;;;7.03;5.80;;;21.50;57.20;;;;;;5068561;28;21032;-73
2021/04/27 10:02:56;;;;;;;7.07;6.40;;;22.00;55.60;;;;;;5068842;28;20470;-73
2021/04/27 10:05:23;;;;;;;6.80;6.10;;;22.00;52.70;;;;;;5068301;28;20942;-73
2021/04/27 10:07:50;;;;;;;6.93;6.23;;;22.30;52.70;;;;;;5066985;28;20467;-74
2021/04/27 10:10:18;;;;;;;8.43;6.20;;;22.60;53.90;;;;;;5067877;28;20478;-73
2021/04/27 10:12:44;;;;;;;7.33;6.53;;;22.30;54.00;;;;;;5069048;28;20443;-73
2021/04/27 10:15:11;;;;;;;7.10;6.30;;;22.10;51.80;;;;;;5067540;28;20463;-73
2021/04/27 10:17:38;;;;;;;6.20;5.60;;;22.20;52.70;;;;;;5068778;28;20463;-74
2021/04/27 10:20:07;;;;;;;10.60;6.30;;;22.60;54.30;;;;;;5067800;28;20475;-73
2021/04/27 10:22:34;;;;;;;7.17;6.47;;;23.00;52.90;;;;;;5068615;28;20450;-74
2021/04/27 10:25:03;;;;;;;6.67;5.90;;;23.30;51.30;;;;;;5068404;28;20922;-73
2021/04/27 10:27:30;;;;;;;7.30;6.60;;;23.10;51.70;;;;;;5067843;28;20455;-73
2021/04/27 10:29:57;;;;;;;6.67;6.00;;;23.70;53.30;;;;;;5068498;28;20490;-73
2021/04/27 10:32:25;;;;;;;7.30;6.10;;;23.90;53.40;;;;;;5159370;22;20493;-67
2021/04/27 10:35:11;;;;;;;7.63;6.87;;;24.10;52.30;;;;;;5089007;28;20450;-69
2021/04/27 10:38:01;;;;;;;8.90;6.73;;;24.00;51.50;;;;;;5087029;28;20499;-68
2021/04/27 10:40:52;;;;;;;7.00;6.30;;;24.00;50.90;;;;;;5068348;28;20471;-69
2021/04/27 10:43:39;;;;;;;7.33;6.50;;;23.70;52.10;;;;;;5067640;28;20857;-70
2021/04/27 10:46:31;;;;;;;7.07;6.27;;;23.50;52.70;;;;;;5069212;28;20828;-70
2021/04/27 10:49:09;;;;;;;8.13;6.70;;;23.80;51.30;;;;;;5068805;28;20911;-69
2021/04/27 10:51:40;;;;;;;7.33;6.63;;;23.60;50.90;;;;;;5068578;28;20458;-69
2021/04/27 10:54:10;;;;;;;7.70;6.67;;;23.40;51.50;;;;;;5068869;28;20744;-70
2021/04/27 10:56:40;;;;;;;7.13;6.37;;;23.40;50.10;;;;;;5068342;28;20462;-71
2021/04/27 10:59:09;;;;;;;7.13;6.53;;;23.80;51.30;;;;;;5069092;28;20482;-69
2021/04/27 11:01:38;;;;;;;8.27;7.47;;;24.10;50.50;;;;;;5068632;28;20549;-70
2021/04/27 11:04:04;;;;;;;7.10;6.40;;;24.50;51.50;;;;;;5069917;28;20834;-69
2021/04/27 11:06:31;;;;;;;7.30;6.60;;;24.30;49.50;;;;;;5068888;28;20466;-69
2021/04/27 11:08:59;;;;;;;8.00;7.30;;;24.00;50.30;;;;;;5068044;28;20543;-70
2021/04/27 11:11:27;;;;;;;8.33;7.50;;;23.90;51.60;;;;;;5067901;28;20465;-69
2021/04/27 11:14:13;;;;;;;7.57;6.83;;;24.20;51.40;;;;;;5068067;28;20463;-70
2021/04/27 11:16:40;;;;;;;8.50;7.70;;;24.30;49.80;;;;;;5067694;28;20450;-69
2021/04/27 11:19:35;;;;;;;7.50;6.67;;;24.70;49.90;;;;;;5067701;28;20954;-70
2021/04/27 11:22:19;;;;;;;9.13;6.87;;;25.00;52.40;;;;;;5060853;28;20462;-69
2021/04/27 11:24:47;;;;;;;7.50;6.80;;;25.20;49.80;;;;;;5069304;28;20488;-68
2021/04/27 11:27:29;;;;;;;8.40;7.43;;;25.60;49.00;;;;;;5071609;28;20969;-69
2021/04/27 11:29:59;;;;;;;7.27;6.67;;;25.40;48.60;;;;;;5071059;28;20500;-69
2021/04/27 11:32:26;;;;;;;7.40;6.60;;;25.60;47.40;;;;;;5064310;28;20470;-69
2021/04/27 11:34:56;;;;;;;7.40;6.30;;;25.20;44.20;;;;;;5070509;28;20820;-72
2021/04/27 11:37:25;;;;;;;6.57;5.77;;;24.90;43.70;;;;;;5070481;28;20771;-69
2021/04/27 11:39:52;;;;;;;7.17;6.57;;;24.50;46.00;;;;;;5070467;28;20489;-70
2021/04/27 11:42:30;;;;;;;6.63;6.03;;;24.40;47.30;;;;;;5069938;28;20470;-69
2021/04/27 11:45:00;;;;;;;6.07;5.57;;;24.60;46.20;;;;;;5070420;28;20458;-70
2021/04/27 11:47:33;;;;;;;6.20;5.60;;;24.70;45.50;;;;;;5070812;28;20458;-69
2021/04/27 11:50:01;;;;;;;6.60;6.00;;;24.70;44.50;;;;;;5070482;28;20498;-69
2021/04/27 11:52:44;;;;;;;6.10;5.50;;;24.80;44.70;;;;;;5070799;28;20485;-69
2021/04/27 11:55:15;;;;;;;7.03;6.33;;;25.20;44.90;;;;;;5070652;28;20462;-70
2021/04/27 11:57:45;;;;;;;7.00;6.30;;;25.00;42.70;;;;;;5069918;28;20458;-70
2021/04/27 12:00:14;;;;;;;7.20;6.10;;;24.80;46.10;;;;;;5070234;28;20950;-69
2021/04/27 12:02:40;;;;;;;9.50;7.17;;;24.90;47.10;;;;;;5070109;28;20465;-69
2021/04/27 12:05:07;;;;;;;9.33;8.30;;;25.10;46.60;;;;;;5070927;28;21012;-69
2021/04/27 12:07:34;;;;;;;10.43;7.00;;;25.00;43.80;;;;;;5070286;28;20931;-69
2021/04/27 12:10:01;;;;;;;14.77;8.27;;;24.60;46.00;;;;;;5070123;28;20540;-70
2021/04/27 12:12:28;;;;;;;8.63;7.67;;;24.20;45.30;;;;;;5071090;28;21012;-69
2021/04/27 12:14:57;;;;;;;8.90;7.23;;;24.40;47.40;;;;;;5070247;28;20458;-70
2021/04/27 12:17:28;;;;;;;6.50;5.90;;;24.60;48.90;;;;;;5070484;28;20544;-69
2021/04/27 12:20:07;;;;;;;8.33;7.30;;;25.00;47.40;;;;;;5070246;28;20467;-70
2021/04/27 12:22:39;;;;;;;11.90;7.40;;;25.40;46.80;;;;;;5069883;28;20495;-69
2021/04/27 12:25:17;;;;;;;10.17;7.40;;;25.40;45.90;;;;;;5070370;28;20466;-71
2021/04/27 12:27:43;;;;;;;8.20;7.40;;;25.40;46.70;;;;;;5069511;28;20467;-71
2021/04/27 12:30:12;;;;;;;8.90;7.47;;;25.50;46.50;;;;;;5069822;28;20493;-72
2021/04/27 12:32:41;;;;;;;7.80;7.00;;;25.60;46.70;;;;;;5069654;28;20463;-71
2021/04/27 12:35:10;;;;;;;10.37;7.27;;;25.90;47.30;;;;;;5069890;28;20459;-71
2021/04/27 12:37:37;;;;;;;8.00;7.20;;;25.40;45.80;;;;;;5069128;28;20504;-71
2021/04/27 12:40:17;;;;;;;8.93;7.00;;;25.40;45.70;;;;;;5069529;28;20859;-70
2021/04/27 12:42:45;;;;;;;10.90;7.60;;;25.40;45.60;;;;;;5069949;28;20460;-72
2021/04/27 12:45:12;;;;;;;10.77;7.43;;;25.90;47.60;;;;;;5069720;28;20820;-70
2021/04/27 12:47:40;;;;;;;7.30;6.60;;;26.40;46.10;;;;;;5069208;28;20902;-71
2021/04/27 12:50:08;;;;;;;8.10;7.40;;;26.80;46.40;;;;;;5068930;28;20488;-69
2021/04/27 12:52:39;;;;;;;9.33;8.30;;;27.10;46.60;;;;;;5069506;28;20465;-70
2021/04/27 12:55:08;;;;;;;8.60;7.67;;;26.40;46.20;;;;;;5070013;28;20461;-70
2021/04/27 12:57:34;;;;;;;7.80;7.10;;;25.80;45.50;;;;;;5069411;28;20964;-70
2021/04/27 13:00:06;;;;;;;7.20;6.50;;;25.40;45.20;;;;;;5069205;28;20480;-71